Open Full Screen Window  High Contrast Mode
Wind Gusting 32 knots
26
March 29, 2015 4:45 PM EDT
Present Weather: Light Snow
Weather Information
Wind Direction
  210 °
Wind Speed
  26 kt (30 mph)
Wind Gust
  32 kt (37 mph)
Altimeter
29.80 in
Visibility
5 SM
Temperature
04° C
39° F
Dewpoint
-04° C
25° F
Humidity
56%
1hr Rain Fall
00.00 in.
24hr Rain Fall
00.00 in.
Sky Condition
Overcast @ 4,500 ft
Broken @ 3,900 ft
Scattered @ 1,400 ft
MVFR

METAR KIKW 292045Z AUTO 21026G32KT 5SM -SN SCT014 BKN039 OVC045 04/M04 A2980 RMK AO2 T00371041

*Background is not an actual portrayal of the airport.